TAF Text Data
IDs:
Format:
Raw Decoded Include METAR

Data at: 2330 UTC 29 May 2020

KMKT 292320Z 3000/3024 35008KT P6SM SKC